Map

Track Data

SID SEASON NUMBER BASIN SUBBASIN NAME ISO_TIME NATURE LAT LON WMO_WIND WMO_PRES WMO_AGENCY TRACK_TYPE DIST2LAND LANDFALL IFLAG USA_AGENCY USA_ATCF_ID USA_LAT USA_LON USA_RECORD USA_STATUS USA_WIND USA_PRES USA_SSHS USA_R34_NE USA_R34_SE USA_R34_SW USA_R34_NW USA_R50_NE USA_R50_SE USA_R50_SW USA_R50_NW USA_R64_NE USA_R64_SE USA_R64_SW USA_R64_NW USA_POCI USA_ROCI USA_RMW USA_EYE TOKYO_LAT TOKYO_LON TOKYO_GRADE TOKYO_WIND TOKYO_PRES TOKYO_R50_DIR TOKYO_R50_LONG TOKYO_R50_SHORT TOKYO_R30_DIR TOKYO_R30_LONG TOKYO_R30_SHORT TOKYO_LAND CMA_LAT CMA_LON CMA_CAT CMA_WIND CMA_PRES HKO_LAT HKO_LON HKO_CAT HKO_WIND HKO_PRES NEWDELHI_LAT NEWDELHI_LON NEWDELHI_GRADE NEWDELHI_WIND NEWDELHI_PRES NEWDELHI_CI NEWDELHI_DP NEWDELHI_POCI REUNION_LAT REUNION_LON REUNION_TYPE REUNION_WIND REUNION_PRES REUNION_TNUM REUNION_CI REUNION_RMW REUNION_R34_NE REUNION_R34_SE REUNION_R34_SW REUNION_R34_NW REUNION_R50_NE REUNION_R50_SE REUNION_R50_SW REUNION_R50_NW REUNION_R64_NE REUNION_R64_SE REUNION_R64_SW REUNION_R64_NW BOM_LAT BOM_LON BOM_TYPE BOM_WIND BOM_PRES BOM_TNUM BOM_CI BOM_RMW BOM_R34_NE BOM_R34_SE BOM_R34_SW BOM_R34_NW BOM_R50_NE BOM_R50_SE BOM_R50_SW BOM_R50_NW BOM_R64_NE BOM_R64_SE BOM_R64_SW BOM_R64_NW BOM_ROCI BOM_POCI BOM_EYE BOM_POS_METHOD BOM_PRES_METHOD NADI_LAT NADI_LON NADI_CAT NADI_WIND NADI_PRES WELLINGTON_LAT WELLINGTON_LON WELLINGTON_WIND WELLINGTON_PRES DS824_LAT DS824_LON DS824_STAGE DS824_WIND DS824_PRES TD9636_LAT TD9636_LON TD9636_STAGE TD9636_WIND TD9636_PRES TD9635_LAT TD9635_LON TD9635_WIND TD9635_PRES TD9635_ROCI NEUMANN_LAT NEUMANN_LON NEUMANN_CLASS NEUMANN_WIND NEUMANN_PRES MLC_LAT MLC_LON MLC_CLASS MLC_WIND MLC_PRES USA_GUST BOM_GUST BOM_GUST_PER REUNION_GUST REUNION_GUST_PER USA_SEAHGT USA_SEARAD_NE USA_SEARAD_SE USA_SEARAD_SW USA_SEARAD_NW STORM_SPEED STORM_DIR
2004338S09113 2005 99 SI WA NOT_NAMED 2004-12-03 06:00:00 TS -9.00000 112.800 main 68 68 O___________O_ jtwc_sh SH052005 -9.00000 112.800 DB 15 1006 -3 -9.00000 112.800 TC 15 12 230
2004338S09113 2005 99 SI WA NOT_NAMED 2004-12-03 09:00:00 TS -9.37010 112.353 main 116 116 P___________P_ SH052005 -9.37010 112.353 DB 17 1005 -3 -9.37010 112.353 TC 17 11 232
2004338S09113 2005 99 SI WA NOT_NAMED 2004-12-03 12:00:00 TS -9.70000 111.900 main 147 146 O___________O_ jtwc_sh SH052005 -9.70000 111.900 DB 20 1004 -3 1008 120 35 -9.70000 111.900 TC 20 11 236
2004338S09113 2005 99 SI WA NOT_NAMED 2004-12-03 15:00:00 TS -9.96497 111.442 main 182 182 P___________P_ SH052005 -9.96497 111.442 DB 22 1003 -3 1008 120 42 -9.96497 111.442 TC 22 10 241
2004338S09113 2005 99 SI WA NOT_NAMED 2004-12-03 18:00:00 TS -10.2000 111.000 main 213 213 O___________O_ jtwc_sh SH052005 -10.2000 111.000 TD 25 1002 -1 1008 120 50 -10.2000 111.000 TC 25 10 241
2004338S09113 2005 99 SI WA NOT_NAMED 2004-12-03 21:00:00 TS -10.4424 110.585 main 244 244 P___________P_ SH052005 -10.4424 110.585 TD 27 1001 -1 1008 120 47 -10.4424 110.585 TC 27 9 238
2004338S09113 2005 99 SI WA NOT_NAMED 2004-12-04 00:00:00 TS -10.7000 110.200 main 285 285 O___________O_ jtwc_sh SH052005 -10.7000 110.200 TD 30 1000 -1 1008 120 45 -10.7000 110.200 TC 30 9 233
2004338S09113 2005 99 SI WA NOT_NAMED 2004-12-04 03:00:00 TS -10.9925 109.835 main 328 328 P___________P_ SH052005 -10.9925 109.835 TD 32 998 -1 -10.9925 109.835 TC 32 9 229
2004338S09113 2005 99 SI WA NOT_NAMED 2004-12-04 06:00:00 TS -11.3000 109.500 main 371 371 O___________O_ jtwc_sh SH052005 -11.3000 109.500 TS 35 997 0 -11.3000 109.500 TC 35 45 9 226
2004338S09113 2005 99 SI WA NOT_NAMED 2004-12-04 09:00:00 TS -11.6150 109.185 main 414 414 P___________P_ SH052005 -11.6150 109.185 TS 35 997 0 -11.6150 109.185 TC 35 8 224
2004338S09113 2005 99 SI WA NOT_NAMED 2004-12-04 12:00:00 TS -11.9000 108.900 main 458 458 O___________O_ jtwc_sh SH052005 -11.9000 108.900 TS 35 997 0 1008 120 45 -11.9000 108.900 TC 35 7 226
2004338S09113 2005 99 SI WA NOT_NAMED 2004-12-04 15:00:00 TS -12.1225 108.642 main 482 482 P___________P_ SH052005 -12.1225 108.642 TS 35 997 0 -12.1225 108.642 TC 35 6 231
2004338S09113 2005 99 SI WA NOT_NAMED 2004-12-04 18:00:00 TS -12.3000 108.400 main 504 504 O___________O_ jtwc_sh SH052005 -12.3000 108.400 TS 35 997 0 -12.3000 108.400 TC 35 45 6 235
2004338S09113 2005 99 SI WA NOT_NAMED 2004-12-04 21:00:00 TS -12.4650 108.150 main 527 527 P___________P_ SH052005 -12.4650 108.150 TS 35 997 0 -12.4650 108.150 TC 35 6 238
2004338S09113 2005 99 SI WA NOT_NAMED 2004-12-05 00:00:00 TS -12.6000 107.900 main 540 540 O___________O_ jtwc_sh SH052005 -12.6000 107.900 TS 35 997 0 1008 120 45 -12.6000 107.900 TC 35 5 244
2004338S09113 2005 99 SI WA NOT_NAMED 2004-12-05 03:00:00 TS -12.7000 107.650 main 555 555 P___________P_ SH052005 -12.7000 107.650 TS 35 997 0 -12.7000 107.650 TC 35 5 248
2004338S09113 2005 99 SI WA NOT_NAMED 2004-12-05 06:00:00 TS -12.8000 107.400 main 570 570 O___________O_ jtwc_sh SH052005 -12.8000 107.400 TS 35 997 0 -12.8000 107.400 TC 35 45 5 244
2004338S09113 2005 99 SI WA NOT_NAMED 2004-12-05 09:00:00 TS -12.9349 107.165 main 586 586 P___________P_ SH052005 -12.9349 107.165 TS 32 998 -1 -12.9349 107.165 TC 32 6 238
2004338S09113 2005 99 SI WA NOT_NAMED 2004-12-05 12:00:00 TS -13.1000 106.900 main 612 612 O___________O_ jtwc_sh SH052005 -13.1000 106.900 TD 30 1000 -1 1008 120 45 -13.1000 106.900 TC 30 7 238
2004338S09113 2005 99 SI WA NOT_NAMED 2004-12-05 15:00:00 TS -13.3000 106.565 main 640 640 P___________P_ SH052005 -13.3000 106.565 TD 27 1001 -1 -13.3000 106.565 TC 27 8 240
2004338S09113 2005 99 SI WA NOT_NAMED 2004-12-05 18:00:00 TS -13.5000 106.200 main 672 672 O___________O_ jtwc_sh SH052005 -13.5000 106.200 TD 25 1002 -1 -13.5000 106.200 TC 25 35 8 243
2004338S09113 2005 99 SI WA NOT_NAMED 2004-12-05 21:00:00 TS -13.6424 105.865 main 692 692 P___________P_ SH052005 -13.6424 105.865 TD 22 1003 -1 -13.6424 105.865 TC 22 7 246
2004338S09113 2005 99 SI WA NOT_NAMED 2004-12-06 00:00:00 TS -13.8000 105.500 main 723 723 O___________O_ jtwc_sh SH052005 -13.8000 105.500 DB 20 1004 -3 -13.8000 105.500 TC 20 9 243
2004338S09113 2005 99 SI WA NOT_NAMED 2004-12-06 03:00:00 TS -14.0277 105.070 main 752 752 P___________P_ SH052005 -14.0277 105.070 DB 20 1004 -3 -14.0277 105.070 TC 20 10 240
2004338S09113 2005 99 SI WA NOT_NAMED 2004-12-06 06:00:00 TS -14.3000 104.600 main 797 O___________O_ jtwc_sh SH052005 -14.3000 104.600 DB 20 1004 -3 -14.3000 104.600 TC 20 11 239

About IBTrACS Database

This database is a web-friendly format of International Best Track Archive for Climate Stewardship (IBTrACS), a global best track data archive curated by NOAA dating back to 1842.

Updated: 2021-11-26